Terminal Aerodrome Forecast
Issued by NWS

Home | Current Version | Previous Version | Text Only | Print | Product List | Glossary On
Versions: 1 2 3 4 5 6 7 8 9 10 11 12 13 14 15
877
FTUS41 KBGM 241134
TAFRME
TAF
KRME 241134Z 2412/2512 VRB03KT P6SM SKC
     FM241400 29006KT P6SM SKC
     FM250300 00000KT P6SM SKC
      TEMPO 2510/2512 5SM BR=

USA.gov is the U.S. government's official web portal to all federal, state and local government web resources and services.